Cuxton, United Kingdom
Current Conditions -  °F | °C
As of 5:50 PM on Wednesday 28 Jan 2015 (Local Time) from EGMC Reporting Station
Few Clouds Few Clouds  
Wind Chill: 32°   Ceiling: Unl
Heat Index: 41°   Visibility: 6mi
Dew Point: 25°   Wind: 20mph
Humidity: 53%   Direction: 270°W
Pressure: 29.56"   Gusts: NA
Location:  51.37°N, 0.46°E
Report Text: EGMC 281750Z 27017KT 9999 FEW030 05/M04 Q1001
Loading
Personal Weather Stations






























Interactive Weather Map New forecast layout! Learn more

10-Day Weather Forecast

Advertisements
Track Severe Weather on mobile